appgaku.com alexa rank chart, appgaku.com alexa rank daily changes

appgaku.com alexa rank chart, appgaku.com alexa rank daily changes

appgaku.com
Actual rank:
557 234

RANK HISTORY

Date Rank Diff
2016/12/02 557 234 +131 203
2016/12/01 426 031 +51 370
2016/11/30 374 661 -17 294
2016/11/29 391 955 +909
2016/11/28 391 046 +39 189
2016/11/27 351 857 -14 453
2016/11/26 366 310 -25 655
2016/11/25 391 965 -1 663
2016/11/24 393 628 -1 432
2016/11/23 395 060 -40 110
2016/11/19 435 170 -4 016
2016/11/18 439 186 +1 904
2016/11/17 437 282 -4 366
2016/11/16 441 648 -2 887
2016/11/15 444 535 -4 925
2016/11/14 449 460 -5 026
2016/11/13 454 486 +20 407
2016/11/12 434 079 -14 690
2016/11/11 448 769 +1 524
2016/11/10 447 245 -1 355
2016/11/09 448 600 -5 485
2016/11/08 454 085 -4 270
2016/11/07 458 355 +16 024
2016/11/06 442 331 +37 433
2016/11/05 404 898 +24 123
2016/11/04 380 775 +35 730
2016/11/03 345 045 +32 005
2016/11/02 313 040 -42 950
2016/11/01 355 990 +6 889
2016/10/31 349 101 -20 701
2016/10/30 369 802 +3 984
2016/10/29 365 818 +2 925
2016/10/28 362 893 -28 940
2016/10/27 391 833 -1 947
2016/10/26 393 780 -417
2016/10/25 394 197 +6 740
2016/10/24 387 457 +6 044
2016/10/23 381 413 +15 324
2016/10/22 366 089 +216
2016/10/21 365 873 +377
2016/10/20 365 496 +1 942
2016/10/19 363 554 +1 956
2016/10/18 361 598 -18 641
2016/10/17 380 239 -86
2016/10/16 380 325 +16 020
2016/10/15 364 305 -183 117
2016/10/14 547 422 -2 850
2016/10/13 550 272 -8 451
2016/10/12 558 723 -33 286
2016/10/11 592 009 +14 184
2016/10/10 577 825 +3 539
2016/10/09 574 286 -89
2016/10/08 574 375 +215 918
2016/10/07 358 457 -167 120
2016/10/06 525 577 +125 297
2016/10/05 400 280 -24 668
2016/10/04 424 948

WIDGET FOR YOUR SITE

DOMAINS WITH THE NEAREST RANK

Domain Rank
b4uaflam.com 557 229
tjoeun.co.kr 557 230
rodziceradza.pl 557 231
mpitemporario.com.br 557 232
teenbe.com 557 233
appgaku.com 557 234
radar.st 557 235
dolce-gusto.hk 557 236
sn4mobile.com 557 237
acquariforum.com 557 238
animal-store.ru 557 239

DOMAINS WITH THE NEAREST RANK BY TLD .com

Domain Rank
x77918.com 557 226
snowballtiger.com 557 227
jeremycowart.com 557 228
b4uaflam.com 557 229
teenbe.com 557 233
appgaku.com 557 234
sn4mobile.com 557 237
acquariforum.com 557 238
linkeddatatools.com 557 244
qadeem.com 557 245
paladin-press.com 557 247